DABB/AAE METAR and TAF weather

Enter ICAO airport designator
Station Type Date Time Source
DABB METAR 2019/08/22 09:00 UTC NOAA

DABB 220900Z 04006KT 8000 SCT020 SCT033 29/23 Q1015


Station Type Date Time Source
DABB Decoded METAR 2019/08/22 09:00 UTC NOAA

Station name not available
Aug 22, 2019 - 05:00 AM EDT / 2019.08.22 0900 UTC
Wind: from the NE (040 degrees) at 7 MPH (6 KT):0
Visibility: 4 mile(s):0
Sky conditions: partly cloudy
Temperature: 84 F (29 C)
Dew Point: 73 F (23 C)
Relative Humidity: 70%
Pressure (altimeter): 29.97 in. Hg (1015 hPa)
ob: DABB 220900Z 04006KT 8000 SCT020 SCT033 29/23 Q1015
cycle: 9

Station Type Date Time Source
DABB TAF 2019/08/22 06:33 UTC NOAA

TAF DABB 220500Z 2206/2306 26004KT 8000 SCT026 BKN033
BECMG 2210/2212 36014KT PROB30
TEMPO 2212/2220 FEW023TCU
BECMG 2220/2222 26008KT

Example: see airport list